Time;durP1;ratioP1;P1;durP2;ratioP2;P2;SDS_P1;SDS_P2;PMS_P1;PMS_P2;Temp;Humidity;BMP_temperature;BMP_pressure;BME280_temperature;BME280_humidity;BME280_pressure;Samples;Min_cycle;Max_cycle;Signal;HPM_P1;HPM_P2
2022/12/12 00:01:17;;;;;;;21.50;18.23;;;1.00;96.70;;;;;;5057379;28;20423;-76
2022/12/12 00:03:44;;;;;;;20.75;18.63;;;1.00;96.60;;;;;;5059921;28;20465;-77
2022/12/12 00:06:11;;;;;;;20.60;18.40;;;1.00;96.80;;;;;;5060182;28;20425;-78
2022/12/12 00:08:38;;;;;;;20.48;18.38;;;1.00;96.90;;;;;;5060585;28;20431;-76
2022/12/12 00:11:05;;;;;;;19.60;17.63;;;1.00;96.80;;;;;;5057448;28;20457;-76
2022/12/12 00:13:33;;;;;;;18.10;16.20;;;1.00;96.70;;;;;;5054968;28;20432;-76
2022/12/12 00:16:00;;;;;;;18.60;16.60;;;1.10;95.70;;;;;;5061704;28;20427;-76
2022/12/12 00:18:28;;;;;;;18.17;16.38;;;1.10;95.00;;;;;;5059418;28;20543;-77
2022/12/12 00:20:55;;;;;;;17.73;16.02;;;1.00;94.70;;;;;;5058966;28;20412;-76
2022/12/12 00:23:23;;;;;;;18.33;16.52;;;1.00;94.70;;;;;;5054930;28;20516;-77
2022/12/12 00:25:54;;;;;;;18.05;16.15;;;1.00;94.50;;;;;;5052718;28;20776;-77
2022/12/12 00:28:21;;;;;;;18.40;16.50;;;1.00;94.30;;;;;;5055286;28;20500;-79
2022/12/12 00:30:48;;;;;;;16.83;15.02;;;1.00;94.30;;;;;;5060296;28;20902;-77
2022/12/12 00:33:15;;;;;;;17.67;15.85;;;1.00;94.00;;;;;;5065690;28;20413;-77
2022/12/12 00:35:43;;;;;;;17.05;15.35;;;1.00;93.70;;;;;;5052392;28;20436;-77
2022/12/12 00:38:10;;;;;;;15.18;13.75;;;1.00;93.70;;;;;;5056700;28;20463;-77
2022/12/12 00:40:37;;;;;;;15.55;13.90;;;1.00;93.40;;;;;;5063400;28;20427;-77
2022/12/12 00:43:04;;;;;;;14.60;13.10;;;1.00;92.70;;;;;;5060444;28;20442;-77
2022/12/12 00:45:30;;;;;;;15.00;13.50;;;1.00;93.00;;;;;;5067506;28;20486;-79
2022/12/12 00:47:57;;;;;;;14.73;13.23;;;1.00;92.20;;;;;;5073992;28;20425;-78
2022/12/12 00:50:24;;;;;;;14.32;12.90;;;1.00;92.20;;;;;;5077457;28;20428;-77
2022/12/12 00:52:52;;;;;;;15.02;13.52;;;0.90;91.90;;;;;;5064877;28;20422;-77
2022/12/12 00:55:19;;;;;;;13.50;12.10;;;0.90;91.90;;;;;;5054469;28;21184;-78
2022/12/12 00:57:46;;;;;;;13.32;11.95;;;0.90;92.10;;;;;;5049686;28;20450;-77
2022/12/12 01:00:15;;;;;;;13.75;12.35;;;0.90;91.60;;;;;;5056751;28;20417;-77
2022/12/12 01:02:42;;;;;;;12.80;11.40;;;0.90;91.80;;;;;;5051114;28;20437;-77
2022/12/12 01:05:09;;;;;;;12.95;11.30;;;0.90;91.70;;;;;;5068504;28;20519;-77
2022/12/12 01:07:36;;;;;;;13.77;12.38;;;0.90;91.90;;;;;;5065177;28;20496;-77
2022/12/12 01:10:06;;;;;;;13.77;12.30;;;0.90;91.90;;;;;;5057855;28;20453;-77
2022/12/12 01:12:33;;;;;;;15.18;12.82;;;0.90;92.30;;;;;;5057481;28;20441;-77
2022/12/12 01:15:00;;;;;;;14.02;12.63;;;0.90;92.20;;;;;;5073602;23;20811;-66
2022/12/12 01:17:27;;;;;;;14.20;12.70;;;0.90;92.10;;;;;;5066698;28;20431;-67
2022/12/12 01:19:53;;;;;;;14.30;12.80;;;1.00;92.10;;;;;;5064831;28;20428;-68
2022/12/12 01:22:22;;;;;;;16.42;14.82;;;1.00;91.90;;;;;;5062047;28;20621;-66
2022/12/12 01:24:48;;;;;;;15.15;13.65;;;0.90;91.90;;;;;;5055299;28;20440;-66
2022/12/12 01:27:17;;;;;;;15.13;13.63;;;0.90;91.80;;;;;;5049294;28;20432;-66
2022/12/12 01:29:43;;;;;;;16.05;14.13;;;0.90;92.10;;;;;;5049884;28;20424;-68
2022/12/12 01:32:10;;;;;;;15.70;14.10;;;0.90;92.10;;;;;;5049431;28;20876;-68
2022/12/12 01:34:37;;;;;;;15.98;14.38;;;0.90;92.40;;;;;;5047356;28;20461;-67
2022/12/12 01:37:04;;;;;;;17.43;15.63;;;0.90;92.50;;;;;;5049780;28;20927;-68
2022/12/12 01:39:30;;;;;;;17.67;15.77;;;0.90;92.70;;;;;;5049573;28;20424;-68
2022/12/12 01:41:57;;;;;;;17.55;15.68;;;0.90;92.80;;;;;;5046355;28;20486;-68
2022/12/12 01:44:41;;;;;;;17.15;15.45;;;0.90;92.90;;;;;;5046859;28;20435;-67
2022/12/12 01:47:09;;;;;;;19.50;17.40;;;0.90;92.90;;;;;;5048383;28;20779;-67
2022/12/12 01:49:36;;;;;;;17.73;15.48;;;0.90;93.00;;;;;;5049215;28;20413;-67
2022/12/12 01:52:07;;;;;;;18.45;16.45;;;0.90;93.10;;;;;;5048484;28;20441;-67
2022/12/12 01:54:38;;;;;;;18.13;16.42;;;0.80;93.30;;;;;;5048953;28;20421;-67
2022/12/12 01:57:08;;;;;;;18.48;16.67;;;0.80;93.70;;;;;;5046970;28;20556;-68
2022/12/12 01:59:36;;;;;;;18.13;15.82;;;0.80;93.70;;;;;;5046688;28;20425;-67
2022/12/12 02:02:05;;;;;;;16.27;14.57;;;0.90;93.90;;;;;;5050450;28;20448;-67
2022/12/12 02:04:32;;;;;;;16.50;14.80;;;0.90;93.50;;;;;;5047979;28;20417;-67
2022/12/12 02:06:59;;;;;;;16.15;14.43;;;0.90;93.30;;;;;;5048989;28;20416;-67
2022/12/12 02:09:26;;;;;;;17.67;15.88;;;0.90;93.30;;;;;;5049317;28;20432;-67
2022/12/12 02:11:55;;;;;;;16.00;14.40;;;0.80;93.30;;;;;;5046049;28;20433;-68
2022/12/12 02:14:25;;;;;;;16.10;14.27;;;0.80;93.40;;;;;;5045076;28;20882;-69
2022/12/12 02:17:22;;;;;;;16.20;14.50;;;0.80;93.40;;;;;;5048586;28;20433;-68
2022/12/12 02:20:25;;;;;;;14.88;13.20;;;0.80;93.20;;;;;;5038922;28;20444;-69
2022/12/12 02:23:18;;;;;;;14.60;13.10;;;0.80;92.90;;;;;;5020302;28;20606;-67
2022/12/12 02:26:00;;;;;;;15.10;13.70;;;0.80;92.40;;;;;;5047683;28;20439;-67
2022/12/12 02:28:51;;;;;;;15.90;13.70;;;0.80;92.20;;;;;;5041193;28;20838;-66
2022/12/12 02:31:23;;;;;;;14.60;13.20;;;0.80;92.10;;;;;;5038413;28;20424;-67
2022/12/12 02:33:57;;;;;;;13.75;12.35;;;0.70;92.40;;;;;;5041537;28;20430;-69
2022/12/12 02:36:33;;;;;;;14.52;12.98;;;0.70;92.30;;;;;;5041591;28;20429;-66
2022/12/12 02:39:08;;;;;;;12.82;11.52;;;0.70;92.40;;;;;;5047410;28;20918;-67
2022/12/12 02:41:38;;;;;;;12.93;11.17;;;0.70;92.30;;;;;;5046547;28;20524;-67
2022/12/12 02:44:14;;;;;;;13.18;11.88;;;0.70;92.10;;;;;;5045678;28;20441;-66
2022/12/12 02:46:49;;;;;;;13.20;11.50;;;0.70;91.70;;;;;;5044435;28;20599;-67
2022/12/12 02:49:21;;;;;;;12.30;11.10;;;0.70;91.60;;;;;;5042051;28;20413;-69
2022/12/12 02:51:49;;;;;;;12.80;11.50;;;0.60;91.70;;;;;;5039428;28;20425;-69
2022/12/12 02:54:19;;;;;;;12.63;11.33;;;0.60;91.80;;;;;;5050249;28;20417;-67
2022/12/12 02:56:49;;;;;;;13.00;11.55;;;0.60;92.00;;;;;;5058067;28;20423;-67
2022/12/12 02:59:21;;;;;;;12.45;11.23;;;0.60;92.20;;;;;;5042885;28;20942;-67
2022/12/12 03:02:09;;;;;;;13.02;11.73;;;0.60;92.10;;;;;;5051353;28;20498;-69
2022/12/12 03:07:48;;;;;;;13.65;12.25;;;0.40;92.40;;;;;;5047896;28;20397;-67
2022/12/12 03:10:28;;;;;;;13.18;11.77;;;0.40;92.80;;;;;;5042093;28;20543;-69
2022/12/12 03:13:02;;;;;;;14.18;12.02;;;0.40;92.80;;;;;;5044424;28;20433;-67
2022/12/12 03:15:39;;;;;;;13.00;11.63;;;0.40;92.80;;;;;;5046734;28;20463;-69
2022/12/12 03:18:21;;;;;;;12.00;10.73;;;0.40;93.10;;;;;;5047530;28;20892;-69
2022/12/12 03:20:52;;;;;;;11.35;10.25;;;0.50;92.80;;;;;;5047878;28;20428;-69
2022/12/12 03:23:25;;;;;;;13.35;11.57;;;0.50;92.20;;;;;;5047190;28;20433;-69
2022/12/12 03:25:58;;;;;;;12.23;10.93;;;0.40;92.20;;;;;;5048084;28;20935;-68
2022/12/12 03:28:30;;;;;;;11.07;9.98;;;0.40;92.20;;;;;;5045986;28;20437;-69
2022/12/12 03:31:01;;;;;;;12.77;10.57;;;0.40;92.40;;;;;;5047075;28;20857;-68
2022/12/12 03:33:38;;;;;;;10.95;9.48;;;0.30;92.50;;;;;;5049818;28;20427;-68
2022/12/12 03:36:12;;;;;;;11.70;9.73;;;0.40;92.00;;;;;;5048409;28;20436;-68
2022/12/12 03:38:43;;;;;;;12.43;11.13;;;0.30;91.70;;;;;;5047803;28;20414;-68
2022/12/12 03:41:15;;;;;;;11.50;10.30;;;0.30;91.70;;;;;;5046254;28;20439;-68
2022/12/12 03:43:46;;;;;;;11.90;10.57;;;0.20;91.80;;;;;;5038740;28;20432;-68
2022/12/12 03:46:17;;;;;;;10.88;9.77;;;0.30;91.80;;;;;;5045142;28;20892;-68
2022/12/12 03:48:49;;;;;;;11.70;9.60;;;0.30;91.60;;;;;;5047838;28;20502;-68
2022/12/12 03:51:20;;;;;;;11.23;10.02;;;0.30;91.70;;;;;;5047645;28;20422;-68
2022/12/12 03:53:49;;;;;;;11.00;10.00;;;0.20;91.70;;;;;;5047113;28;20941;-68
2022/12/12 03:56:23;;;;;;;10.38;9.13;;;0.20;91.90;;;;;;5045519;28;20429;-68
2022/12/12 03:58:53;;;;;;;12.30;9.70;;;0.20;91.60;;;;;;5045234;28;20428;-68
2022/12/12 04:01:25;;;;;;;10.50;9.40;;;0.20;91.40;;;;;;5047660;28;20440;-69
2022/12/12 04:03:59;;;;;;;11.48;10.27;;;0.20;91.40;;;;;;5046773;28;20432;-68
2022/12/12 04:06:32;;;;;;;10.73;9.20;;;0.10;91.50;;;;;;5038222;28;20724;-68
2022/12/12 04:14:59;;;;;;;11.77;9.30;;;0.10;91.50;;;;;;5045667;28;20436;-68
2022/12/12 04:17:33;;;;;;;10.38;8.77;;;0.10;91.40;;;;;;5046341;28;20431;-68
2022/12/12 04:23:17;;;;;;;10.98;9.00;;;0.00;91.40;;;;;;5035286;28;20482;-68
2022/12/12 04:28:53;;;;;;;9.90;8.90;;;0.00;91.00;;;;;;5032934;28;20818;-68
2022/12/12 04:31:25;;;;;;;10.23;8.33;;;-0.10;90.90;;;;;;5050700;28;20459;-68
2022/12/12 04:33:58;;;;;;;9.70;8.70;;;-0.10;91.10;;;;;;5050236;28;20420;-68
2022/12/12 04:36:27;;;;;;;11.48;9.30;;;-0.20;91.30;;;;;;5051366;28;20425;-68
2022/12/12 04:38:55;;;;;;;9.43;8.43;;;-0.20;91.40;;;;;;5036625;28;20413;-68
2022/12/12 04:41:22;;;;;;;9.18;8.27;;;-0.20;91.30;;;;;;5046128;28;20915;-68
2022/12/12 04:43:52;;;;;;;9.88;8.50;;;-0.20;91.30;;;;;;5057990;28;20435;-67
2022/12/12 04:46:24;;;;;;;10.15;9.13;;;-0.30;91.50;;;;;;5050460;28;20417;-68
2022/12/12 04:48:53;;;;;;;9.65;8.07;;;-0.30;91.80;;;;;;5050694;28;20447;-68
2022/12/12 04:51:25;;;;;;;9.27;7.78;;;-0.30;91.70;;;;;;5047960;28;20468;-68
2022/12/12 04:54:00;;;;;;;9.95;8.70;;;-0.20;91.10;;;;;;5050023;28;20413;-68
2022/12/12 04:56:30;;;;;;;10.07;8.43;;;-0.20;91.00;;;;;;5049159;28;20429;-68
2022/12/12 04:58:58;;;;;;;9.52;7.57;;;-0.30;90.80;;;;;;5050491;28;20440;-68
2022/12/12 05:01:32;;;;;;;9.73;8.75;;;-0.30;90.70;;;;;;5044883;28;20792;-68
2022/12/12 05:04:03;;;;;;;8.55;7.65;;;-0.30;90.60;;;;;;5049247;28;20464;-68
2022/12/12 05:06:35;;;;;;;9.73;7.78;;;-0.40;90.70;;;;;;5050198;28;20416;-68
2022/12/12 05:09:03;;;;;;;9.77;8.13;;;-0.40;90.90;;;;;;5050393;28;20448;-68
2022/12/12 05:11:30;;;;;;;8.45;7.65;;;-0.40;90.80;;;;;;5046257;28;20439;-66
2022/12/12 05:13:57;;;;;;;8.20;7.30;;;-0.40;90.80;;;;;;5048873;28;20444;-67
2022/12/12 05:16:27;;;;;;;9.45;7.68;;;-0.40;90.70;;;;;;5049420;28;20437;-67
2022/12/12 05:18:55;;;;;;;10.10;8.00;;;-0.40;90.50;;;;;;5048001;28;20460;-66
2022/12/12 05:21:21;;;;;;;9.00;7.68;;;-0.40;90.40;;;;;;5046687;28;20446;-67
2022/12/12 05:23:48;;;;;;;9.57;8.10;;;-0.40;90.50;;;;;;5045108;28;20435;-67
2022/12/12 05:26:22;;;;;;;10.32;8.00;;;-0.50;90.70;;;;;;5047737;28;20433;-68
2022/12/12 05:28:49;;;;;;;8.27;7.15;;;-0.50;90.80;;;;;;5048268;28;20437;-69
2022/12/12 05:31:16;;;;;;;9.68;7.50;;;-0.50;90.80;;;;;;5049835;28;20425;-67
2022/12/12 05:33:43;;;;;;;9.40;8.05;;;-0.50;90.90;;;;;;5049375;28;20420;-68
2022/12/12 05:36:11;;;;;;;10.50;7.80;;;-0.50;90.40;;;;;;5049378;28;21040;-68
2022/12/12 05:38:37;;;;;;;8.30;7.30;;;-0.50;90.30;;;;;;5051423;28;20439;-68
2022/12/12 05:41:05;;;;;;;8.00;7.20;;;-0.50;90.00;;;;;;5049477;28;20451;-67
2022/12/12 05:43:34;;;;;;;9.18;7.47;;;-0.50;89.50;;;;;;5043057;28;20433;-68
2022/12/12 05:46:01;;;;;;;9.75;8.35;;;-0.50;89.60;;;;;;5049153;28;21011;-68
2022/12/12 05:48:27;;;;;;;9.50;8.20;;;-0.50;88.80;;;;;;5046617;28;20431;-68
2022/12/12 05:50:54;;;;;;;10.90;9.02;;;-0.60;88.90;;;;;;5062648;28;20428;-68
2022/12/12 05:53:22;;;;;;;10.65;9.43;;;-0.60;89.40;;;;;;5040329;28;20434;-68
2022/12/12 05:55:50;;;;;;;10.40;8.57;;;-0.60;90.20;;;;;;5044121;28;20423;-69
2022/12/12 05:58:17;;;;;;;9.45;8.45;;;-0.60;90.20;;;;;;5039435;28;20520;-68
2022/12/12 06:00:46;;;;;;;9.30;7.82;;;-0.50;90.30;;;;;;5041905;28;21062;-68
2022/12/12 06:03:13;;;;;;;10.68;8.38;;;-0.50;90.30;;;;;;5037255;28;20433;-68
2022/12/12 06:05:40;;;;;;;12.30;9.20;;;-0.60;90.60;;;;;;5044507;28;20436;-68
2022/12/12 06:08:07;;;;;;;10.60;8.93;;;-0.50;91.00;;;;;;5044795;28;20444;-68
2022/12/12 06:10:34;;;;;;;9.50;7.70;;;-0.50;90.90;;;;;;5046987;28;20429;-68
2022/12/12 06:13:01;;;;;;;9.48;7.93;;;-0.50;90.70;;;;;;5047057;28;20880;-70
2022/12/12 06:15:27;;;;;;;9.15;7.70;;;-0.50;90.60;;;;;;5043424;28;20539;-70
2022/12/12 06:17:57;;;;;;;10.47;8.50;;;-0.50;90.40;;;;;;5041895;28;20656;-70
2022/12/12 06:20:24;;;;;;;9.65;8.48;;;-0.50;90.00;;;;;;5048874;28;20433;-69
2022/12/12 06:22:51;;;;;;;11.27;8.30;;;-0.60;90.10;;;;;;5046634;28;20433;-68
2022/12/12 06:25:17;;;;;;;10.40;8.43;;;-0.60;90.30;;;;;;5048699;28;20428;-68
2022/12/12 06:27:44;;;;;;;9.93;8.50;;;-0.70;90.60;;;;;;5042460;28;20429;-68
2022/12/12 06:30:11;;;;;;;9.77;8.45;;;-0.70;90.80;;;;;;5047766;28;20417;-68
2022/12/12 06:32:38;;;;;;;9.68;8.20;;;-0.70;91.00;;;;;;5043661;28;20436;-68
2022/12/12 06:35:07;;;;;;;10.40;8.60;;;-0.70;91.00;;;;;;5048344;28;20452;-68
2022/12/12 06:37:33;;;;;;;9.90;8.73;;;-0.70;91.20;;;;;;5043447;28;20429;-68
2022/12/12 06:40:00;;;;;;;11.18;8.98;;;-0.70;91.00;;;;;;5047472;28;20440;-68
2022/12/12 06:42:27;;;;;;;10.07;8.80;;;-0.70;90.90;;;;;;5044454;28;20442;-69
2022/12/12 06:44:54;;;;;;;9.65;8.15;;;-0.80;91.00;;;;;;5049552;28;20420;-69
2022/12/12 06:47:21;;;;;;;9.88;8.70;;;-0.80;91.40;;;;;;5050171;28;20949;-69
2022/12/12 06:49:47;;;;;;;12.30;9.10;;;-0.80;91.60;;;;;;5044832;28;20508;-68
2022/12/12 06:52:15;;;;;;;10.10;8.35;;;-0.70;91.30;;;;;;5048527;28;20444;-69
2022/12/12 06:54:42;;;;;;;11.68;9.10;;;-0.70;91.00;;;;;;5049353;28;20767;-69
2022/12/12 06:57:09;;;;;;;11.60;8.77;;;-0.70;90.90;;;;;;5047431;28;20451;-69
2022/12/12 06:59:36;;;;;;;10.32;9.10;;;-0.80;90.90;;;;;;5047446;28;20437;-69
2022/12/12 07:02:03;;;;;;;11.45;8.50;;;-0.70;91.20;;;;;;5046037;28;20429;-69
2022/12/12 07:04:30;;;;;;;10.17;8.30;;;-0.70;90.90;;;;;;5042211;28;20503;-69
2022/12/12 07:06:57;;;;;;;9.90;8.70;;;-0.70;90.50;;;;;;5046281;28;20512;-69
2022/12/12 07:09:25;;;;;;;11.10;8.30;;;-0.70;90.40;;;;;;5044402;28;20440;-68
2022/12/12 07:11:52;;;;;;;10.40;8.60;;;-0.70;90.50;;;;;;5043573;28;20536;-69
2022/12/12 07:14:18;;;;;;;10.40;8.45;;;-0.70;90.30;;;;;;5036252;28;20500;-68
2022/12/12 07:16:45;;;;;;;11.20;8.90;;;-0.70;90.40;;;;;;5043802;28;21096;-67
2022/12/12 07:19:12;;;;;;;11.52;8.57;;;-0.70;90.40;;;;;;5043043;28;20440;-68
2022/12/12 07:21:39;;;;;;;10.53;7.93;;;-0.70;90.40;;;;;;5041344;28;20429;-68
2022/12/12 07:24:06;;;;;;;10.93;7.93;;;-0.70;90.20;;;;;;5042468;28;20513;-68
2022/12/12 07:26:34;;;;;;;10.60;8.55;;;-0.60;90.10;;;;;;5043174;28;20424;-68
2022/12/12 07:29:04;;;;;;;11.88;8.80;;;-0.60;90.10;;;;;;5042075;28;20432;-68
2022/12/12 07:31:31;;;;;;;8.52;7.63;;;-0.60;90.30;;;;;;5044946;28;20976;-68
2022/12/12 07:33:58;;;;;;;11.10;8.68;;;-0.50;90.30;;;;;;5044555;28;21008;-68
2022/12/12 07:36:24;;;;;;;10.10;8.63;;;-0.60;90.10;;;;;;5046202;28;21155;-68
2022/12/12 07:38:51;;;;;;;10.73;8.90;;;-0.60;90.10;;;;;;5042480;28;20425;-68
2022/12/12 07:41:19;;;;;;;10.40;8.68;;;-0.60;89.40;;;;;;5045146;28;20460;-68
2022/12/12 07:43:49;;;;;;;11.30;9.23;;;-0.50;89.20;;;;;;5044862;28;20436;-68
2022/12/12 07:46:18;;;;;;;11.48;9.40;;;-0.50;89.20;;;;;;5040895;28;20854;-68
2022/12/12 07:48:45;;;;;;;9.73;8.10;;;-0.50;89.10;;;;;;5044939;28;20522;-67
2022/12/12 07:51:13;;;;;;;10.90;9.40;;;-0.50;89.20;;;;;;5043799;28;20440;-69
2022/12/12 07:53:40;;;;;;;11.65;9.18;;;-0.60;89.60;;;;;;5044160;28;20433;-69
2022/12/12 07:56:08;;;;;;;10.80;9.30;;;-0.60;90.00;;;;;;5043003;28;20811;-68
2022/12/12 07:58:34;;;;;;;11.95;9.57;;;-0.60;90.00;;;;;;5045273;28;20450;-68
2022/12/12 08:01:08;;;;;;;11.63;9.15;;;-0.60;90.00;;;;;;5045530;28;20436;-66
2022/12/12 08:03:35;;;;;;;10.40;9.30;;;-0.60;89.80;;;;;;5044980;28;21388;-67
2022/12/12 08:06:04;;;;;;;12.00;9.70;;;-0.60;89.80;;;;;;5049752;28;21037;-68
2022/12/12 08:08:31;;;;;;;12.10;9.90;;;-0.60;90.10;;;;;;5047841;28;20433;-69
2022/12/12 08:10:58;;;;;;;10.70;8.80;;;-0.60;90.30;;;;;;5052018;28;20431;-67
2022/12/12 08:13:25;;;;;;;11.13;8.95;;;-0.60;90.40;;;;;;5047891;28;20456;-67
2022/12/12 08:15:52;;;;;;;12.27;9.15;;;-0.60;90.30;;;;;;5046863;28;20437;-68
2022/12/12 08:18:20;;;;;;;9.90;8.50;;;-0.60;90.50;;;;;;5048840;28;20441;-68
2022/12/12 08:20:46;;;;;;;10.95;9.48;;;-0.50;90.30;;;;;;5046894;28;20432;-67
2022/12/12 08:23:13;;;;;;;11.50;9.55;;;-0.50;90.10;;;;;;5047212;28;20433;-68
2022/12/12 08:25:40;;;;;;;12.90;10.18;;;-0.50;89.70;;;;;;5043973;23;20444;-74
2022/12/12 08:28:07;;;;;;;11.85;10.20;;;-0.50;90.00;;;;;;5019861;28;20435;-75
2022/12/12 08:30:33;;;;;;;12.00;10.18;;;-0.50;90.00;;;;;;5020307;28;21008;-75
2022/12/12 08:33:00;;;;;;;11.60;9.40;;;-0.50;90.30;;;;;;5019805;28;20822;-75
2022/12/12 08:35:31;;;;;;;12.40;10.65;;;-0.40;90.30;;;;;;5015467;28;20440;-75
2022/12/12 08:37:58;;;;;;;13.40;10.30;;;-0.30;90.50;;;;;;5001896;28;20443;-74
2022/12/12 08:40:25;;;;;;;12.65;10.50;;;-0.20;90.50;;;;;;4999735;28;20538;-79
2022/12/12 08:42:52;;;;;;;15.00;10.70;;;0.00;90.30;;;;;;5001291;28;20436;-73
2022/12/12 08:45:19;;;;;;;13.55;10.20;;;0.20;90.20;;;;;;5006541;28;20756;-74
2022/12/12 08:47:45;;;;;;;11.75;9.75;;;0.40;89.80;;;;;;5009411;28;20800;-73
2022/12/12 08:50:12;;;;;;;12.10;10.80;;;0.70;87.90;;;;;;5007204;28;20440;-73
2022/12/12 08:52:40;;;;;;;10.67;9.50;;;0.80;86.10;;;;;;5006453;28;20497;-74
2022/12/12 08:55:08;;;;;;;11.68;10.48;;;0.90;85.40;;;;;;5003270;28;20481;-74
2022/12/12 08:57:35;;;;;;;15.52;11.30;;;1.10;85.10;;;;;;4999215;28;20443;-74
2022/12/12 09:00:02;;;;;;;12.20;10.77;;;1.30;84.80;;;;;;5007401;28;20519;-72
2022/12/12 09:02:29;;;;;;;11.60;10.40;;;1.40;83.80;;;;;;5019854;28;20443;-71
2022/12/12 09:04:56;;;;;;;12.27;10.30;;;1.60;83.70;;;;;;5024964;28;20421;-64
2022/12/12 09:07:23;;;;;;;12.27;10.97;;;1.80;83.50;;;;;;5020409;28;20524;-64
2022/12/12 09:09:51;;;;;;;10.93;9.82;;;2.10;82.80;;;;;;5004136;28;20464;-73
2022/12/12 09:12:18;;;;;;;12.90;11.03;;;2.30;82.10;;;;;;5006018;28;20893;-73
2022/12/12 09:14:45;;;;;;;11.32;10.13;;;2.50;81.40;;;;;;5006306;28;20452;-73
2022/12/12 09:17:11;;;;;;;11.80;10.60;;;2.60;79.20;;;;;;4998304;28;20418;-72
2022/12/12 09:19:38;;;;;;;13.60;11.60;;;2.70;78.50;;;;;;5014480;28;20452;-73
2022/12/12 09:22:05;;;;;;;12.10;10.20;;;2.70;78.00;;;;;;5017760;28;20443;-71
2022/12/12 09:24:32;;;;;;;12.20;11.00;;;2.80;77.30;;;;;;5021189;28;20535;-72
2022/12/12 09:27:00;;;;;;;12.30;11.00;;;2.80;76.70;;;;;;5014892;28;20464;-70
2022/12/12 09:29:28;;;;;;;13.77;11.90;;;3.00;76.50;;;;;;5009145;28;20439;-74
2022/12/12 09:31:55;;;;;;;11.33;10.13;;;3.20;76.80;;;;;;5005962;28;20880;-75
2022/12/12 09:34:21;;;;;;;11.32;10.05;;;3.40;75.00;;;;;;5005115;28;20439;-75
2022/12/12 09:36:48;;;;;;;13.03;11.73;;;3.30;73.70;;;;;;5008295;28;20435;-73
2022/12/12 09:39:15;;;;;;;12.00;10.50;;;3.30;74.10;;;;;;5002251;28;20434;-76
2022/12/12 09:41:42;;;;;;;12.27;10.70;;;3.40;74.90;;;;;;5001006;28;20438;-76
2022/12/12 09:44:14;;;;;;;12.77;11.03;;;3.50;74.80;;;;;;5004620;28;20440;-75
2022/12/12 09:46:46;;;;;;;11.55;10.23;;;3.70;73.40;;;;;;5004113;28;20495;-76
2022/12/12 09:49:15;;;;;;;11.60;10.50;;;3.70;72.80;;;;;;5003699;28;20432;-75
2022/12/12 09:51:46;;;;;;;12.07;10.88;;;3.80;73.20;;;;;;5004374;28;20432;-76
2022/12/12 09:54:16;;;;;;;12.07;10.73;;;4.10;73.20;;;;;;5003776;28;20524;-66
2022/12/12 09:56:53;;;;;;;12.70;10.80;;;4.30;72.20;;;;;;4999885;28;20532;-71
2022/12/12 09:59:29;;;;;;;12.07;10.88;;;4.50;71.80;;;;;;5001198;28;20468;-71
2022/12/12 10:02:14;;;;;;;13.93;12.48;;;4.80;71.00;;;;;;4995813;28;20454;-74
2022/12/12 10:04:53;;;;;;;12.48;11.27;;;4.70;69.20;;;;;;5002695;28;20474;-79
2022/12/12 10:07:26;;;;;;;13.73;12.23;;;4.70;69.80;;;;;;4996375;28;20443;-68
2022/12/12 10:10:01;;;;;;;14.25;11.48;;;4.80;69.10;;;;;;5002547;28;20439;-75
2022/12/12 10:12:29;;;;;;;13.40;12.10;;;4.90;69.90;;;;;;4998842;28;20441;-76
2022/12/12 10:15:02;;;;;;;12.50;11.23;;;5.10;69.10;;;;;;4994653;28;20455;-76
2022/12/12 10:17:32;;;;;;;13.40;12.10;;;5.10;68.30;;;;;;4995944;28;20611;-73
2022/12/12 10:20:03;;;;;;;12.87;11.67;;;5.20;67.90;;;;;;4994749;28;20432;-72
2022/12/12 10:22:36;;;;;;;11.75;10.63;;;5.30;67.10;;;;;;4999271;28;20974;-76
2022/12/12 10:25:15;;;;;;;12.80;11.50;;;5.30;66.50;;;;;;5000107;28;20551;-76
2022/12/12 10:27:42;;;;;;;11.35;10.25;;;5.20;66.20;;;;;;5005857;28;20520;-76
2022/12/12 10:30:17;;;;;;;12.40;11.20;;;5.00;67.10;;;;;;4998929;28;20449;-75
2022/12/12 10:33:03;;;;;;;12.40;11.10;;;4.90;66.40;;;;;;5001031;28;20468;-75
2022/12/12 10:35:38;;;;;;;12.90;11.67;;;4.80;67.40;;;;;;5005257;28;20469;-75
2022/12/12 10:38:19;;;;;;;14.02;11.77;;;4.80;67.80;;;;;;5003231;28;20538;-75
2022/12/12 10:40:58;;;;;;;13.27;11.98;;;4.80;67.60;;;;;;4995468;28;21110;-75
2022/12/12 10:43:30;;;;;;;12.70;11.25;;;5.00;67.10;;;;;;4997568;28;20436;-76
2022/12/12 10:46:14;;;;;;;13.10;11.80;;;5.10;66.10;;;;;;4993660;28;20798;-75
2022/12/12 10:48:42;;;;;;;12.85;11.57;;;4.80;66.30;;;;;;5004054;28;20483;-74
2022/12/12 10:51:12;;;;;;;12.25;10.93;;;4.70;66.80;;;;;;5002601;28;20416;-73
2022/12/12 10:53:40;;;;;;;10.90;9.73;;;4.80;67.00;;;;;;4999823;28;20537;-75
2022/12/12 10:56:10;;;;;;;11.40;10.20;;;4.70;66.50;;;;;;4999532;28;20436;-75
2022/12/12 10:58:38;;;;;;;12.40;11.13;;;4.70;67.20;;;;;;4996939;28;20507;-75
2022/12/12 11:01:13;;;;;;;10.63;9.53;;;4.50;67.30;;;;;;5000405;28;20954;-75
2022/12/12 11:03:42;;;;;;;10.57;9.57;;;4.40;66.70;;;;;;5003231;28;20439;-73
2022/12/12 11:06:13;;;;;;;11.20;10.00;;;4.20;66.90;;;;;;4999010;28;20956;-75
2022/12/12 11:08:52;;;;;;;12.85;10.60;;;4.20;67.70;;;;;;5005599;28;20433;-75
2022/12/12 11:11:21;;;;;;;11.70;10.05;;;4.10;68.20;;;;;;5003760;28;20436;-75
2022/12/12 11:13:52;;;;;;;11.80;10.60;;;4.00;69.50;;;;;;5004108;28;20440;-75
2022/12/12 11:16:23;;;;;;;11.00;9.80;;;4.10;70.00;;;;;;5018898;28;20425;-74
2022/12/12 11:19:17;;;;;;;11.70;10.40;;;4.00;68.60;;;;;;5014683;28;20424;-73
2022/12/12 11:21:44;;;;;;;12.90;10.02;;;3.80;69.40;;;;;;5015563;28;20419;-74
2022/12/12 11:24:15;;;;;;;11.35;10.23;;;3.70;71.40;;;;;;5006765;28;20436;-75
2022/12/12 11:26:46;;;;;;;11.77;10.57;;;3.60;70.80;;;;;;5003661;28;20438;-74
2022/12/12 11:29:28;;;;;;;11.73;10.52;;;3.40;71.70;;;;;;4998092;28;20910;-75
2022/12/12 11:31:58;;;;;;;11.35;10.15;;;3.50;71.50;;;;;;5004438;28;20891;-75
2022/12/12 11:34:26;;;;;;;11.48;10.38;;;3.60;71.70;;;;;;5002383;28;20805;-72
2022/12/12 11:36:53;;;;;;;11.73;10.32;;;3.80;71.10;;;;;;5003384;28;21159;-74
2022/12/12 11:39:25;;;;;;;11.55;10.38;;;4.00;70.50;;;;;;5000412;28;20929;-74
2022/12/12 11:42:02;;;;;;;11.20;9.95;;;4.30;69.90;;;;;;4999545;28;20438;-74
2022/12/12 11:44:33;;;;;;;10.70;9.70;;;4.50;67.90;;;;;;5002547;28;20900;-73
2022/12/12 11:49:56;;;;;;;11.40;10.25;;;4.60;67.40;;;;;;5132688;27;20376;-73
2022/12/12 11:52:28;;;;;;;11.30;10.10;;;4.60;66.80;;;;;;5133346;27;20425;-74
2022/12/12 11:54:56;;;;;;;12.07;9.83;;;4.90;66.60;;;;;;5140136;27;20512;-72
2022/12/12 11:57:42;;;;;;;11.85;10.57;;;5.20;65.80;;;;;;5124949;27;20446;-73
2022/12/12 12:00:14;;;;;;;11.38;10.18;;;5.40;65.60;;;;;;5137504;27;20434;-73
2022/12/12 12:02:58;;;;;;;11.40;10.40;;;5.90;65.00;;;;;;5127613;27;20861;-75
2022/12/12 12:05:35;;;;;;;11.68;10.30;;;6.30;63.10;;;;;;5127269;27;20898;-73
2022/12/12 12:08:14;;;;;;;12.10;10.90;;;6.80;61.50;;;;;;5139430;27;20419;-73
2022/12/12 12:10:51;;;;;;;11.65;10.45;;;6.60;61.40;;;;;;5135459;27;20527;-75
2022/12/12 12:13:33;;;;;;;12.98;11.57;;;6.40;62.60;;;;;;5134401;27;21082;-76
2022/12/12 12:16:06;;;;;;;12.27;10.60;;;6.60;62.90;;;;;;5129019;27;20450;-72
2022/12/12 12:18:45;;;;;;;11.40;10.20;;;6.80;61.10;;;;;;5136840;27;20513;-73
2022/12/12 12:21:43;;;;;;;11.60;10.50;;;6.80;61.10;;;;;;5127369;27;20917;-72
2022/12/12 12:24:40;;;;;;;11.80;10.60;;;7.00;60.20;;;;;;5124011;27;20421;-76
2022/12/12 12:27:18;;;;;;;12.10;10.90;;;7.00;60.00;;;;;;5135252;27;20433;-74
2022/12/12 12:30:14;;;;;;;11.77;10.68;;;6.60;60.30;;;;;;5133892;27;20433;-73
2022/12/12 12:32:55;;;;;;;11.40;10.07;;;6.60;60.00;;;;;;5135912;27;20432;-74
2022/12/12 12:35:29;;;;;;;12.13;10.95;;;6.70;60.90;;;;;;5133972;27;20438;-73
2022/12/12 12:38:09;;;;;;;12.20;11.10;;;6.70;61.00;;;;;;5138934;27;20490;-75
2022/12/12 12:40:49;;;;;;;11.98;10.77;;;6.90;59.70;;;;;;5133037;27;20433;-74
2022/12/12 12:43:33;;;;;;;12.32;11.13;;;7.00;58.40;;;;;;5132614;27;20472;-75
2022/12/12 12:46:11;;;;;;;11.90;10.80;;;6.60;59.10;;;;;;5131006;27;20948;-75
2022/12/12 12:48:43;;;;;;;12.52;11.23;;;6.50;59.30;;;;;;5137149;27;20484;-75
2022/12/12 12:51:17;;;;;;;12.07;10.85;;;6.40;59.90;;;;;;5132893;27;20422;-73
2022/12/12 12:53:49;;;;;;;11.07;9.98;;;6.30;60.30;;;;;;5129064;27;20463;-75
2022/12/12 12:56:24;;;;;;;11.40;10.30;;;6.30;60.40;;;;;;5124100;27;20429;-75
2022/12/12 12:58:54;;;;;;;11.07;9.88;;;6.30;59.90;;;;;;5128485;27;20500;-75
2022/12/12 13:01:26;;;;;;;10.95;9.85;;;6.10;60.30;;;;;;5109859;27;20435;-76
2022/12/12 13:04:00;;;;;;;10.13;9.20;;;6.00;61.30;;;;;;5121608;27;20461;-74
2022/12/12 13:06:36;;;;;;;10.48;9.57;;;6.00;60.20;;;;;;5120648;27;20429;-73
2022/12/12 13:09:15;;;;;;;10.73;9.63;;;6.10;60.50;;;;;;5112665;27;20439;-74
2022/12/12 13:11:45;;;;;;;11.25;10.10;;;6.30;59.50;;;;;;5114412;27;20440;-76
2022/12/12 13:14:18;;;;;;;11.43;10.30;;;6.20;59.90;;;;;;5117282;27;20464;-75